createdAt,value
2018-03-24T00:00:22.512Z,82.98
2018-03-24T00:02:50.279Z,83.12
2018-03-24T00:05:18.041Z,83.02
2018-03-24T00:07:45.703Z,83.07
2018-03-24T00:10:13.464Z,83.05
2018-03-24T00:12:41.084Z,82.82
2018-03-24T00:15:09.728Z,83.13
2018-03-24T00:17:37.376Z,83.46
2018-03-24T00:20:05.039Z,83.41
2018-03-24T00:22:32.694Z,83.40
2018-03-24T00:25:00.357Z,83.37
2018-03-24T00:27:28.223Z,83.21
2018-03-24T00:29:55.988Z,83.17
2018-03-24T00:32:23.651Z,83.19
2018-03-24T00:34:51.325Z,83.29
2018-03-24T00:37:18.981Z,83.50
2018-03-24T00:39:46.581Z,83.43
2018-03-24T00:42:14.202Z,83.50
2018-03-24T00:44:41.972Z,83.46
2018-03-24T00:47:09.728Z,83.30
2018-03-24T00:49:37.435Z,83.42
2018-03-24T00:52:05.048Z,82.95
2018-03-24T00:54:32.709Z,82.44
2018-03-24T00:57:00.472Z,82.32
2018-03-24T00:59:28.239Z,82.48
2018-03-24T01:01:55.906Z,82.71
2018-03-24T01:04:23.765Z,82.78
2018-03-24T01:06:51.533Z,82.83
2018-03-24T01:09:19.192Z,82.98
2018-03-24T01:11:46.858Z,83.01
2018-03-24T01:14:15.334Z,82.49
2018-03-24T01:16:42.893Z,82.18
2018-03-24T01:19:10.555Z,81.74
2018-03-24T01:21:38.114Z,82.05
2018-03-24T01:24:05.776Z,82.23
2018-03-24T01:26:33.336Z,82.33
2018-03-24T01:29:00.998Z,82.49
2018-03-24T01:31:29.581Z,82.56
2018-03-24T01:33:57.141Z,82.65
2018-03-24T01:36:24.914Z,82.91
2018-03-24T01:38:52.465Z,83.12
2018-03-24T01:41:20.125Z,83.38
2018-03-24T01:43:47.685Z,83.21
2018-03-24T01:46:15.349Z,83.07
2018-03-24T01:48:43.009Z,82.72
2018-03-24T01:51:10.619Z,82.24
2018-03-24T01:53:50.207Z,81.45
2018-03-24T01:56:17.872Z,81.79
2018-03-24T01:58:45.545Z,81.87
2018-03-24T02:01:13.194Z,81.92
2018-03-24T02:03:40.958Z,81.74
2018-03-24T02:06:08.634Z,81.56
2018-03-24T02:08:36.285Z,81.54
2018-03-24T02:11:04.045Z,81.36
2018-03-24T02:13:31.605Z,81.43
2018-03-24T02:15:59.267Z,81.28
2018-03-24T02:18:26.842Z,81.23
2018-03-24T02:20:54.449Z,81.37
2018-03-24T02:23:22.047Z,81.40
2018-03-24T02:25:49.860Z,81.69
2018-03-24T02:28:17.594Z,81.14
2018-03-24T02:30:45.257Z,81.02
2018-03-24T02:33:12.846Z,81.10
2018-03-24T02:35:40.581Z,81.33
2018-03-24T02:38:08.276Z,81.36
2018-03-24T02:40:36.393Z,81.33
2018-03-24T02:43:04.108Z,81.63
2018-03-24T02:45:31.743Z,81.99
2018-03-24T02:47:59.429Z,82.20
2018-03-24T02:50:27.078Z,82.14
2018-03-24T02:52:54.856Z,82.50
2018-03-24T02:55:22.356Z,82.42
2018-03-24T02:57:49.916Z,82.73
2018-03-24T03:00:17.429Z,83.16
2018-03-24T03:02:45.433Z,83.51
2018-03-24T03:05:12.924Z,83.47
2018-03-24T03:07:40.440Z,83.61
2018-03-24T03:10:07.954Z,83.89
2018-03-24T03:12:35.497Z,84.61
2018-03-24T03:15:02.991Z,84.54
2018-03-24T03:17:30.505Z,84.23
2018-03-24T03:19:57.997Z,84.04
2018-03-24T03:22:26.443Z,83.96
2018-03-24T03:24:54.082Z,84.04
2018-03-24T03:27:21.593Z,83.92
2018-03-24T03:29:49.136Z,83.81
2018-03-24T03:32:18.585Z,84.29
2018-03-24T03:34:46.095Z,84.54
2018-03-24T03:37:13.677Z,84.73
2018-03-24T03:39:41.196Z,84.82
2018-03-24T03:42:08.704Z,84.95
2018-03-24T03:44:36.231Z,85.11
2018-03-24T03:47:03.796Z,85.60
2018-03-24T03:49:31.321Z,86.60
2018-03-24T03:51:58.848Z,87.23
2018-03-24T03:54:26.392Z,87.77
2018-03-24T03:56:53.998Z,87.79
2018-03-24T03:59:21.535Z,88.01
2018-03-24T04:01:49.055Z,88.17
2018-03-24T04:04:16.603Z,88.20
2018-03-24T04:06:44.157Z,88.26
2018-03-24T04:09:11.723Z,88.48
2018-03-24T04:11:39.267Z,88.46
2018-03-24T04:14:06.799Z,88.63
2018-03-24T04:16:34.312Z,88.57
2018-03-24T04:19:01.873Z,88.39
2018-03-24T04:21:29.380Z,88.55
2018-03-24T04:23:56.896Z,88.65
2018-03-24T04:26:24.444Z,88.59
2018-03-24T04:28:51.972Z,88.52
2018-03-24T04:31:19.467Z,88.47
2018-03-24T04:33:47.024Z,88.28
2018-03-24T04:36:14.567Z,88.25
2018-03-24T04:38:42.101Z,88.08
2018-03-24T04:41:09.600Z,87.89
2018-03-24T04:43:37.123Z,87.76
2018-03-24T04:46:04.615Z,87.74
2018-03-24T04:48:32.177Z,87.71
2018-03-24T04:50:59.760Z,87.84
2018-03-24T04:53:27.303Z,87.75
2018-03-24T04:55:54.920Z,87.88
2018-03-24T04:58:22.420Z,88.00
2018-03-24T05:00:49.944Z,87.96
2018-03-24T05:03:17.556Z,87.84
2018-03-24T05:05:45.116Z,88.42
2018-03-24T05:08:12.640Z,88.32
2018-03-24T05:10:40.158Z,88.96
2018-03-24T05:13:07.672Z,88.46
2018-03-24T05:15:35.200Z,88.59
2018-03-24T05:18:02.695Z,88.79
2018-03-24T05:20:30.252Z,88.67
2018-03-24T05:22:57.780Z,89.33
2018-03-24T05:25:25.307Z,89.04
2018-03-24T05:27:52.804Z,88.93
2018-03-24T05:30:20.368Z,88.64
2018-03-24T05:32:47.870Z,88.52
2018-03-24T05:35:15.399Z,88.54
2018-03-24T05:37:42.891Z,88.64
2018-03-24T05:40:10.421Z,88.41
2018-03-24T05:42:37.979Z,88.35
2018-03-24T05:45:05.540Z,88.53
2018-03-24T05:47:33.043Z,88.42
2018-03-24T05:50:00.560Z,88.24
2018-03-24T05:52:28.061Z,88.04
2018-03-24T05:54:55.631Z,87.80
2018-03-24T05:57:23.191Z,87.75
2018-03-24T05:59:50.697Z,87.86
2018-03-24T06:02:18.268Z,87.62
2018-03-24T06:04:45.764Z,87.55
2018-03-24T06:07:13.307Z,87.21
2018-03-24T06:09:40.803Z,87.07
2018-03-24T06:12:08.329Z,86.89
2018-03-24T06:14:35.824Z,86.94
2018-03-24T06:17:03.389Z,86.19
2018-03-24T06:19:30.968Z,85.66
2018-03-24T06:21:58.489Z,84.79
2018-03-24T06:24:25.992Z,85.05
2018-03-24T06:26:53.507Z,84.21
2018-03-24T06:29:21.020Z,84.26
2018-03-24T06:31:52.009Z,84.83
2018-03-24T06:34:19.517Z,85.21
2018-03-24T06:36:47.328Z,85.09
2018-03-24T06:39:14.855Z,84.29
2018-03-24T06:41:42.396Z,83.45
2018-03-24T06:44:09.951Z,82.59
2018-03-24T06:46:37.502Z,81.41
2018-03-24T06:49:05.072Z,81.63
2018-03-24T06:51:32.589Z,81.40
2018-03-24T06:54:00.089Z,80.82
2018-03-24T06:56:27.657Z,81.63
2018-03-24T06:58:55.188Z,80.57
2018-03-24T07:01:22.708Z,79.80
2018-03-24T07:03:50.212Z,80.62
2018-03-24T07:06:17.756Z,80.92
2018-03-24T07:08:45.334Z,81.36
2018-03-24T07:11:12.840Z,80.77
2018-03-24T07:13:40.462Z,80.47
2018-03-24T07:16:07.951Z,81.48
2018-03-24T07:18:35.471Z,81.10
2018-03-24T07:21:02.980Z,80.62
2018-03-24T07:23:30.598Z,80.72
2018-03-24T07:25:58.156Z,78.90
2018-03-24T07:28:25.673Z,77.97
2018-03-24T07:30:53.167Z,77.99
2018-03-24T07:33:20.691Z,78.47
2018-03-24T07:35:48.266Z,77.67
2018-03-24T07:38:15.851Z,76.74
2018-03-24T07:40:43.344Z,76.35
2018-03-24T07:43:10.864Z,76.22
2018-03-24T07:45:38.362Z,74.83
2018-03-24T07:48:05.883Z,75.85
2018-03-24T07:50:33.388Z,75.38
2018-03-24T07:53:00.904Z,75.05
2018-03-24T07:55:28.481Z,74.33
2018-03-24T07:57:56.235Z,71.40
2018-03-24T08:00:23.723Z,70.96
2018-03-24T08:02:51.244Z,70.37
2018-03-24T08:05:18.744Z,69.09
2018-03-24T08:07:46.368Z,69.90
2018-03-24T08:10:13.945Z,70.07
2018-03-24T08:12:41.588Z,71.36
2018-03-24T08:15:09.160Z,69.72
2018-03-24T08:17:36.699Z,69.43
2018-03-24T08:20:04.188Z,68.51
2018-03-24T08:22:31.731Z,69.63
2018-03-24T08:24:59.223Z,69.37
2018-03-24T08:27:30.091Z,69.58
2018-03-24T08:29:57.783Z,69.57
2018-03-24T08:32:25.294Z,68.75
2018-03-24T08:34:52.857Z,69.02
2018-03-24T08:37:20.366Z,70.03
2018-03-24T08:39:47.920Z,69.26
2018-03-24T08:42:15.477Z,68.02
2018-03-24T08:44:43.027Z,66.37
2018-03-24T08:47:10.504Z,65.75
2018-03-24T08:49:38.020Z,64.81
2018-03-24T08:52:05.620Z,64.47
2018-03-24T08:54:33.139Z,66.14
2018-03-24T08:57:00.741Z,65.50
2018-03-24T08:59:28.264Z,65.50
2018-03-24T09:01:55.770Z,64.71
2018-03-24T09:04:23.291Z,65.99
2018-03-24T09:06:50.792Z,64.89
2018-03-24T09:09:18.337Z,66.14
2018-03-24T09:11:45.879Z,64.35
2018-03-24T09:14:13.410Z,63.51
2018-03-24T09:16:40.924Z,62.54
2018-03-24T09:19:08.467Z,62.56
2018-03-24T09:21:36.029Z,64.08
2018-03-24T09:24:03.597Z,65.86
2018-03-24T09:26:31.091Z,66.08
2018-03-24T09:28:58.616Z,67.51
2018-03-24T09:31:26.112Z,66.63
2018-03-24T09:33:53.655Z,67.63
2018-03-24T09:36:21.212Z,67.76
2018-03-24T09:38:48.743Z,68.47
2018-03-24T09:41:16.292Z,68.87
2018-03-24T09:43:43.797Z,68.42
2018-03-24T09:46:11.322Z,66.17
2018-03-24T09:48:38.828Z,65.54
2018-03-24T09:51:06.440Z,61.19
2018-03-24T09:53:34.124Z,58.00
2018-03-24T09:56:01.669Z,54.31
2018-03-24T09:58:29.164Z,54.82
2018-03-24T10:00:56.788Z,52.56
2018-03-24T10:03:24.304Z,51.77
2018-03-24T10:05:51.870Z,50.90
2018-03-24T10:08:19.467Z,51.46
2018-03-24T10:10:46.987Z,48.68
2018-03-24T10:13:14.493Z,48.16
2018-03-24T10:15:42.021Z,46.64
2018-03-24T10:18:09.540Z,45.72
2018-03-24T10:24:18.745Z,41.73
2018-03-24T10:26:46.288Z,42.10
2018-03-24T10:29:13.798Z,41.12
2018-03-24T10:31:41.451Z,41.23
2018-03-24T10:34:08.997Z,39.37
2018-03-24T10:36:36.556Z,37.77
2018-03-24T10:39:04.086Z,37.70
2018-03-24T10:41:31.610Z,38.33
2018-03-24T10:43:59.148Z,38.66
2018-03-24T10:46:26.693Z,36.35
2018-03-24T10:48:54.194Z,36.19
2018-03-24T10:51:21.811Z,35.25
2018-03-24T10:53:49.377Z,33.15
2018-03-24T10:56:16.955Z,33.80
2018-03-24T10:58:44.477Z,34.25
2018-03-24T11:01:13.951Z,31.70
2018-03-24T11:03:41.463Z,30.77
2018-03-24T11:06:08.980Z,30.32
2018-03-24T11:08:36.488Z,30.79
2018-03-24T11:11:04.040Z,29.68
2018-03-24T11:13:31.542Z,29.63
2018-03-24T11:15:59.074Z,27.25
2018-03-24T11:18:26.612Z,26.58
2018-03-24T11:20:54.146Z,27.46
2018-03-24T11:23:21.684Z,25.69
2018-03-24T11:25:49.210Z,24.31
2018-03-24T11:28:16.748Z,26.31
2018-03-24T11:30:45.243Z,26.74
2018-03-24T11:33:12.797Z,26.99
2018-03-24T11:35:40.307Z,26.70
2018-03-24T11:38:07.828Z,27.28
2018-03-24T11:40:35.379Z,25.66
2018-03-24T11:43:02.944Z,23.73
2018-03-24T11:45:30.476Z,24.26
2018-03-24T11:47:57.995Z,24.40
2018-03-24T11:50:25.614Z,26.61
2018-03-24T11:52:53.155Z,24.19
2018-03-24T11:55:20.654Z,23.36
2018-03-24T11:57:48.283Z,20.94
2018-03-24T12:00:15.790Z,23.06
2018-03-24T12:02:43.419Z,22.08
2018-03-24T12:05:10.982Z,19.64
2018-03-24T12:07:38.623Z,19.10
2018-03-24T12:10:06.119Z,17.48
2018-03-24T12:12:33.699Z,18.60
2018-03-24T12:15:01.214Z,19.01
2018-03-24T12:17:28.760Z,17.61
2018-03-24T12:19:56.261Z,19.04
2018-03-24T12:22:23.782Z,19.09
2018-03-24T12:24:51.297Z,17.31
2018-03-24T12:27:18.828Z,15.95
2018-03-24T12:29:46.328Z,17.41
2018-03-24T12:32:13.852Z,14.22
2018-03-24T12:34:41.385Z,16.02
2018-03-24T12:37:08.900Z,15.75
2018-03-24T12:39:36.456Z,14.02
2018-03-24T12:42:04.052Z,15.67
2018-03-24T12:44:31.553Z,18.14
2018-03-24T12:46:59.086Z,15.46
2018-03-24T12:49:26.636Z,13.70
2018-03-24T12:51:54.139Z,13.51
2018-03-24T12:54:21.657Z,11.61
2018-03-24T12:56:49.223Z,15.47
2018-03-24T12:59:16.829Z,12.78
2018-03-24T13:01:44.332Z,11.34
2018-03-24T13:04:11.843Z,10.83
2018-03-24T13:06:39.337Z,10.79
2018-03-24T13:09:06.906Z,10.60
2018-03-24T13:11:34.576Z,11.40
2018-03-24T13:14:02.160Z,11.58
2018-03-24T13:16:29.622Z,11.18
2018-03-24T13:18:57.239Z,11.67
2018-03-24T13:21:24.812Z,11.88
2018-03-24T13:23:52.381Z,11.47
2018-03-24T13:26:19.876Z,11.47
2018-03-24T13:28:47.395Z,11.01
2018-03-24T13:31:14.902Z,9.60
2018-03-24T13:33:42.511Z,10.58
2018-03-24T13:36:10.007Z,10.35
2018-03-24T13:38:37.520Z,10.10
2018-03-24T13:41:05.116Z,10.31
2018-03-24T13:43:32.651Z,11.25
2018-03-24T13:46:00.176Z,12.21
2018-03-24T13:48:27.768Z,16.71
2018-03-24T13:50:55.334Z,12.13
2018-03-24T13:53:22.871Z,12.53
2018-03-24T13:55:50.370Z,12.13
2018-03-24T13:58:17.902Z,10.92
2018-03-24T14:00:45.421Z,12.07
2018-03-24T14:03:12.916Z,11.59
2018-03-24T14:05:40.468Z,10.03
2018-03-24T14:08:07.961Z,9.92
2018-03-24T14:10:35.476Z,9.57
2018-03-24T14:13:03.065Z,10.08
2018-03-24T14:15:30.670Z,10.53
2018-03-24T14:17:58.180Z,10.14
2018-03-24T14:20:25.731Z,12.77
2018-03-24T14:22:53.288Z,12.62
2018-03-24T14:25:20.844Z,11.15
2018-03-24T14:27:48.407Z,9.87
2018-03-24T14:30:16.086Z,11.75
2018-03-24T14:32:43.612Z,11.69
2018-03-24T14:35:11.151Z,13.16
2018-03-24T14:37:38.675Z,12.03
2018-03-24T14:40:06.204Z,11.37
2018-03-24T14:42:33.783Z,9.83
2018-03-24T14:45:01.553Z,11.21
2018-03-24T14:47:29.060Z,11.01
2018-03-24T14:49:56.614Z,10.64
2018-03-24T14:52:24.113Z,10.94
2018-03-24T14:54:51.685Z,11.52
2018-03-24T14:57:20.208Z,12.92
2018-03-24T14:59:47.740Z,13.84
2018-03-24T15:02:15.271Z,12.89
2018-03-24T15:04:57.674Z,11.48
2018-03-24T15:13:34.500Z,12.94
2018-03-24T15:16:05.338Z,14.13
2018-03-24T15:18:37.248Z,13.09
2018-03-24T15:21:05.371Z,12.19
2018-03-24T15:26:42.413Z,16.76
2018-03-24T15:29:27.218Z,17.47
2018-03-24T15:32:11.238Z,17.16
2018-03-24T15:34:54.063Z,18.79
2018-03-24T15:37:31.204Z,21.93
2018-03-24T15:40:03.433Z,19.45
2018-03-24T15:42:39.153Z,17.09
2018-03-24T15:45:12.005Z,17.38
2018-03-24T15:47:41.986Z,19.66
2018-03-24T15:50:13.985Z,18.97
2018-03-24T15:58:00.026Z,20.95
2018-03-24T16:03:07.110Z,23.85
2018-03-24T16:05:45.068Z,24.25
2018-03-24T16:08:16.983Z,21.64
2018-03-24T16:10:45.356Z,19.35
2018-03-24T16:13:14.512Z,17.14
2018-03-24T16:16:04.299Z,16.74
2018-03-24T16:18:45.297Z,15.79
2018-03-24T16:21:36.021Z,16.09
2018-03-24T16:24:19.545Z,17.48
2018-03-24T16:27:03.377Z,17.83
2018-03-24T16:29:41.193Z,19.31
2018-03-24T16:32:19.314Z,18.64
2018-03-24T17:11:13.540Z,27.61
2018-03-24T17:13:42.453Z,30.86
2018-03-24T17:16:11.150Z,30.54
2018-03-24T17:18:39.465Z,32.33
2018-03-24T17:21:08.164Z,33.03
2018-03-24T17:23:39.412Z,33.16
2018-03-24T17:26:07.554Z,33.46
2018-03-24T17:28:35.935Z,34.01
2018-03-24T17:31:06.167Z,33.71
2018-03-24T17:33:35.777Z,34.28
2018-03-24T17:36:06.071Z,35.19
2018-03-24T17:38:35.739Z,35.79
2018-03-24T17:41:04.120Z,36.24
2018-03-24T17:43:35.496Z,36.54
2018-03-24T17:46:04.438Z,37.27
2018-03-24T17:48:33.274Z,38.21
2018-03-24T17:51:01.582Z,37.99
2018-03-24T17:53:30.451Z,38.45
2018-03-24T17:56:08.454Z,38.60
2018-03-24T17:58:39.186Z,40.30
2018-03-24T18:01:08.449Z,40.58
2018-03-24T18:03:38.929Z,41.18
2018-03-24T18:06:08.567Z,41.36
2018-03-24T18:08:42.894Z,42.48
2018-03-24T18:11:12.642Z,43.01
2018-03-24T18:13:42.185Z,42.86
2018-03-24T18:16:12.094Z,42.93
2018-03-24T18:18:40.628Z,43.34
2018-03-24T18:21:12.268Z,44.05
2018-03-24T18:23:41.581Z,44.24
2018-03-24T18:26:10.205Z,44.62
2018-03-24T18:28:38.640Z,46.59
2018-03-24T18:31:08.177Z,47.39
2018-03-24T18:33:39.544Z,47.63
2018-03-24T18:36:07.551Z,47.69
2018-03-24T18:38:38.343Z,47.57
2018-03-24T18:41:06.405Z,48.49
2018-03-24T18:43:37.582Z,49.51
2018-03-24T18:46:06.027Z,49.31
2018-03-24T18:48:34.674Z,49.99
2018-03-24T18:51:05.852Z,50.50
2018-03-24T18:53:37.069Z,51.71
2018-03-24T18:56:06.254Z,51.27
2018-03-24T19:01:29.005Z,51.84
2018-03-24T19:04:05.955Z,52.67
2018-03-24T19:06:33.791Z,53.42
2018-03-24T19:09:01.298Z,54.88
2018-03-24T19:11:28.893Z,53.69
2018-03-24T19:13:56.392Z,55.75
2018-03-24T19:16:23.913Z,55.07
2018-03-24T19:18:51.465Z,55.75
2018-03-24T19:21:20.032Z,55.60
2018-03-24T19:23:47.528Z,56.37
2018-03-24T19:26:15.083Z,56.36
2018-03-24T19:28:42.590Z,56.37
2018-03-24T19:31:10.180Z,56.84
2018-03-24T19:33:37.683Z,58.15
2018-03-24T19:36:05.204Z,57.90
2018-03-24T19:38:32.712Z,58.07
2018-03-24T19:41:00.235Z,58.85
2018-03-24T19:43:27.764Z,59.43
2018-03-24T19:45:55.452Z,59.25
2018-03-24T19:48:23.000Z,59.52
2018-03-24T19:50:50.532Z,60.85
2018-03-24T19:53:18.098Z,60.31
2018-03-24T19:55:45.632Z,61.44
2018-03-24T19:58:13.260Z,61.42
2018-03-24T20:00:40.819Z,61.26
2018-03-24T20:03:08.480Z,61.76
2018-03-24T20:05:36.240Z,61.32
2018-03-24T20:08:03.741Z,61.56
2018-03-24T20:10:31.256Z,62.58
2018-03-24T20:13:00.168Z,62.96
2018-03-24T20:15:27.920Z,63.11
2018-03-24T20:17:55.514Z,63.68
2018-03-24T20:20:23.100Z,64.38
2018-03-24T20:22:50.628Z,64.39
2018-03-24T20:25:18.158Z,64.82
2018-03-24T20:27:45.839Z,65.21
2018-03-24T20:30:13.375Z,64.50
2018-03-24T20:32:40.932Z,64.09
2018-03-24T20:35:08.434Z,64.39
2018-03-24T20:37:36.040Z,65.00
2018-03-24T20:40:03.619Z,64.45
2018-03-24T20:42:31.158Z,64.15
2018-03-24T20:44:58.716Z,64.71
2018-03-24T20:47:26.272Z,65.14
2018-03-24T20:49:53.773Z,64.82
2018-03-24T20:52:21.314Z,65.08
2018-03-24T20:54:48.909Z,66.60
2018-03-24T20:57:16.461Z,66.45
2018-03-24T20:59:43.987Z,66.15
2018-03-24T21:02:11.565Z,67.13
2018-03-24T21:04:39.064Z,66.77
2018-03-24T21:07:06.629Z,67.11
2018-03-24T21:09:34.333Z,66.49
2018-03-24T21:12:02.930Z,66.11
2018-03-24T21:14:30.566Z,66.45
2018-03-24T21:16:58.124Z,66.41
2018-03-24T21:19:25.797Z,66.86
2018-03-24T21:21:54.264Z,67.32
2018-03-24T21:24:21.807Z,67.92
2018-03-24T21:26:49.320Z,67.78
2018-03-24T21:29:16.848Z,68.42
2018-03-24T21:31:44.354Z,68.60
2018-03-24T21:34:11.884Z,68.37
2018-03-24T21:36:39.420Z,68.22
2018-03-24T21:39:06.981Z,68.93
2018-03-24T21:41:34.668Z,68.89
2018-03-24T21:44:02.344Z,68.47
2018-03-24T21:46:29.849Z,68.74
2018-03-24T21:48:57.367Z,69.34
2018-03-24T21:51:24.876Z,70.32
2018-03-24T21:53:52.458Z,69.67
2018-03-24T21:56:19.992Z,70.43
2018-03-24T21:58:47.562Z,70.33
2018-03-24T22:01:15.132Z,70.45
2018-03-24T22:03:42.671Z,70.69
2018-03-24T22:06:10.175Z,71.78
2018-03-24T22:08:37.807Z,71.10
2018-03-24T22:11:05.337Z,70.28
2018-03-24T22:13:32.872Z,70.44
2018-03-24T22:16:00.392Z,71.27
2018-03-24T22:18:27.932Z,71.14
2018-03-24T22:20:55.513Z,71.54
2018-03-24T22:23:24.791Z,71.91
2018-03-24T22:25:52.366Z,72.21
2018-03-24T22:28:19.880Z,71.99
2018-03-24T22:30:47.435Z,72.31
2018-03-24T22:33:15.899Z,72.54
2018-03-24T22:35:43.504Z,72.46
2018-03-24T22:38:11.016Z,72.95
2018-03-24T22:40:38.582Z,73.31
2018-03-24T22:43:06.254Z,73.23
2018-03-24T22:45:33.783Z,73.67
2018-03-24T22:48:01.291Z,72.65
2018-03-24T22:50:28.820Z,71.29
2018-03-24T22:52:56.312Z,72.03
2018-03-24T22:55:23.940Z,72.72
2018-03-24T22:57:51.535Z,72.16
2018-03-24T23:00:19.065Z,71.60
2018-03-24T23:02:46.580Z,70.62
2018-03-24T23:05:14.146Z,71.33
2018-03-24T23:07:41.650Z,71.62
2018-03-24T23:12:36.244Z,70.31
2018-03-24T23:15:03.878Z,71.17
2018-03-24T23:17:31.377Z,70.77
2018-03-24T23:19:58.985Z,70.91
2018-03-24T23:22:26.538Z,70.18
2018-03-24T23:24:54.060Z,71.24
2018-03-24T23:27:21.594Z,71.63
2018-03-24T23:29:49.120Z,71.72
2018-03-24T23:32:16.643Z,72.38
2018-03-24T23:34:44.135Z,72.47
2018-03-24T23:37:13.589Z,72.33
2018-03-24T23:39:41.101Z,72.07
2018-03-24T23:42:08.615Z,71.75
2018-03-24T23:44:36.108Z,72.10
2018-03-24T23:47:03.623Z,71.83
2018-03-24T23:49:31.124Z,72.52
2018-03-24T23:51:58.632Z,72.65
2018-03-24T23:54:26.119Z,72.29
2018-03-24T23:56:53.985Z,72.70
2018-03-24T23:59:21.488Z,72.43
